sensor_id;sensor_type;location;lat;lon;timestamp;pressure;altitude;pressure_sealevel;temperature;humidity
8637;BME280;4356;49.068;8.658;2023-12-20T00:02:11;99978.03;;;16.01;41.33
8637;BME280;4356;49.068;8.658;2023-12-20T00:04:36;99956.72;;;15.92;41.13
8637;BME280;4356;49.068;8.658;2023-12-20T00:07:01;99950.66;;;15.90;41.20
8637;BME280;4356;49.068;8.658;2023-12-20T00:09:27;99959.22;;;15.93;40.95
8637;BME280;4356;49.068;8.658;2023-12-20T00:11:52;99975.50;;;16.00;41.39
8637;BME280;4356;49.068;8.658;2023-12-20T00:14:17;99973.63;;;16.00;41.09
8637;BME280;4356;49.068;8.658;2023-12-20T00:16:43;99967.56;;;15.98;41.28
8637;BME280;4356;49.068;8.658;2023-12-20T00:19:08;99957.94;;;15.89;41.04
8637;BME280;4356;49.068;8.658;2023-12-20T00:21:33;99970.91;;;15.94;41.50
8637;BME280;4356;49.068;8.658;2023-12-20T00:23:59;99956.69;;;15.85;40.87
8637;BME280;4356;49.068;8.658;2023-12-20T00:26:24;99968.19;;;15.94;41.13
8637;BME280;4356;49.068;8.658;2023-12-20T00:28:50;99966.28;;;15.94;40.98
8637;BME280;4356;49.068;8.658;2023-12-20T00:31:15;99946.88;;;15.84;41.28
8637;BME280;4356;49.068;8.658;2023-12-20T00:33:40;99977.34;;;15.93;41.04
8637;BME280;4356;49.068;8.658;2023-12-20T00:36:08;99969.44;;;15.91;41.36
8637;BME280;4356;49.068;8.658;2023-12-20T00:38:34;99961.09;;;15.93;41.34
8637;BME280;4356;49.068;8.658;2023-12-20T00:41:00;99967.56;;;15.92;41.22
8637;BME280;4356;49.068;8.658;2023-12-20T00:43:25;99961.28;;;15.91;40.98
8637;BME280;4356;49.068;8.658;2023-12-20T00:45:51;99954.81;;;15.86;41.16
8637;BME280;4356;49.068;8.658;2023-12-20T00:48:16;99938.75;;;15.78;41.34
8637;BME280;4356;49.068;8.658;2023-12-20T00:50:42;99964.44;;;15.88;41.43
8637;BME280;4356;49.068;8.658;2023-12-20T00:53:07;99967.53;;;15.85;41.14
8637;BME280;4356;49.068;8.658;2023-12-20T00:55:32;99956.03;;;15.77;41.36
8637;BME280;4356;49.068;8.658;2023-12-20T00:57:58;99949.59;;;15.78;41.07
8637;BME280;4356;49.068;8.658;2023-12-20T01:00:24;99953.97;;;15.79;41.23
8637;BME280;4356;49.068;8.658;2023-12-20T01:02:50;99959.38;;;15.85;41.21
8637;BME280;4356;49.068;8.658;2023-12-20T01:05:17;99966.91;;;15.83;41.29
8637;BME280;4356;49.068;8.658;2023-12-20T01:07:42;99969.81;;;15.82;41.22
8637;BME280;4356;49.068;8.658;2023-12-20T01:10:08;99979.41;;;15.84;41.39
8637;BME280;4356;49.068;8.658;2023-12-20T01:12:35;99965.00;;;15.77;41.40
8637;BME280;4356;49.068;8.658;2023-12-20T01:15:01;99973.97;;;15.78;41.35
8637;BME280;4356;49.068;8.658;2023-12-20T01:17:26;99973.13;;;15.77;41.30
8637;BME280;4356;49.068;8.658;2023-12-20T01:19:51;99971.91;;;15.80;41.25
8637;BME280;4356;49.068;8.658;2023-12-20T01:22:17;99958.09;;;15.75;41.44
8637;BME280;4356;49.068;8.658;2023-12-20T01:24:42;99962.28;;;15.77;41.34
8637;BME280;4356;49.068;8.658;2023-12-20T01:27:08;99951.66;;;15.76;41.28
8637;BME280;4356;49.068;8.658;2023-12-20T01:29:33;99952.69;;;15.75;41.71
8637;BME280;4356;49.068;8.658;2023-12-20T01:31:58;99952.91;;;15.73;41.34
8637;BME280;4356;49.068;8.658;2023-12-20T01:34:24;99948.53;;;15.72;41.40
8637;BME280;4356;49.068;8.658;2023-12-20T01:36:49;99951.25;;;15.72;41.45
8637;BME280;4356;49.068;8.658;2023-12-20T01:39:14;99946.84;;;15.71;41.31
8637;BME280;4356;49.068;8.658;2023-12-20T01:41:40;99937.44;;;15.67;41.75
8637;BME280;4356;49.068;8.658;2023-12-20T01:44:05;99947.88;;;15.70;41.83
8637;BME280;4356;49.068;8.658;2023-12-20T01:46:31;99947.88;;;15.70;41.72
8637;BME280;4356;49.068;8.658;2023-12-20T01:48:57;99948.28;;;15.67;41.75
8637;BME280;4356;49.068;8.658;2023-12-20T01:51:22;99949.97;;;15.68;42.24
8637;BME280;4356;49.068;8.658;2023-12-20T01:53:48;99940.75;;;15.56;41.72
8637;BME280;4356;49.068;8.658;2023-12-20T01:56:15;99954.31;;;15.69;41.69
8637;BME280;4356;49.068;8.658;2023-12-20T01:58:44;99948.91;;;15.69;41.94
8637;BME280;4356;49.068;8.658;2023-12-20T02:01:10;99949.53;;;15.65;41.92
8637;BME280;4356;49.068;8.658;2023-12-20T02:03:35;99941.19;;;15.66;41.70
8637;BME280;4356;49.068;8.658;2023-12-20T02:06:03;99949.31;;;15.66;41.84
8637;BME280;4356;49.068;8.658;2023-12-20T02:08:28;99954.94;;;15.65;42.08
8637;BME280;4356;49.068;8.658;2023-12-20T02:10:55;99945.34;;;15.62;42.05
8637;BME280;4356;49.068;8.658;2023-12-20T02:13:21;99941.56;;;15.57;42.15
8637;BME280;4356;49.068;8.658;2023-12-20T02:15:46;99958.50;;;15.65;41.91
8637;BME280;4356;49.068;8.658;2023-12-20T02:18:12;99959.53;;;15.64;41.73
8637;BME280;4356;49.068;8.658;2023-12-20T02:20:42;99939.91;;;15.56;41.96
8637;BME280;4356;49.068;8.658;2023-12-20T02:23:07;99952.44;;;15.63;41.88
8637;BME280;4356;49.068;8.658;2023-12-20T02:25:32;99957.03;;;15.63;41.80
8637;BME280;4356;49.068;8.658;2023-12-20T02:27:58;99945.34;;;15.62;41.91
8637;BME280;4356;49.068;8.658;2023-12-20T02:30:23;99953.47;;;15.62;41.78
8637;BME280;4356;49.068;8.658;2023-12-20T02:32:49;99954.53;;;15.61;41.58
8637;BME280;4356;49.068;8.658;2023-12-20T02:35:15;99959.72;;;15.63;42.06
8637;BME280;4356;49.068;8.658;2023-12-20T02:37:40;99952.03;;;15.60;41.81
8637;BME280;4356;49.068;8.658;2023-12-20T02:40:06;99949.50;;;15.58;41.89
8637;BME280;4356;49.068;8.658;2023-12-20T02:42:32;99948.66;;;15.58;41.94
8637;BME280;4356;49.068;8.658;2023-12-20T02:44:57;99947.84;;;15.57;41.92
8637;BME280;4356;49.068;8.658;2023-12-20T02:47:22;99956.59;;;15.59;41.69
8637;BME280;4356;49.068;8.658;2023-12-20T02:49:48;99961.81;;;15.61;41.67
8637;BME280;4356;49.068;8.658;2023-12-20T02:52:14;99954.09;;;15.58;42.00
8637;BME280;4356;49.068;8.658;2023-12-20T02:54:39;99963.03;;;15.58;42.13
8637;BME280;4356;49.068;8.658;2023-12-20T02:57:05;99964.09;;;15.57;41.91
8637;BME280;4356;49.068;8.658;2023-12-20T02:59:30;99971.78;;;15.60;42.07
8637;BME280;4356;49.068;8.658;2023-12-20T03:01:56;99965.13;;;15.56;42.05
8637;BME280;4356;49.068;8.658;2023-12-20T03:04:21;99987.03;;;15.61;42.14
8637;BME280;4356;49.068;8.658;2023-12-20T03:06:46;99980.34;;;15.57;42.36
8637;BME280;4356;49.068;8.658;2023-12-20T03:09:12;99974.28;;;15.55;42.20
8637;BME280;4356;49.068;8.658;2023-12-20T03:11:37;99986.38;;;15.59;42.10
8637;BME280;4356;49.068;8.658;2023-12-20T03:14:03;99979.28;;;15.58;42.06
8637;BME280;4356;49.068;8.658;2023-12-20T03:16:28;99981.19;;;15.58;42.33
8637;BME280;4356;49.068;8.658;2023-12-20T03:18:53;99977.63;;;15.57;42.03
8637;BME280;4356;49.068;8.658;2023-12-20T03:21:19;99964.88;;;15.51;42.00
8637;BME280;4356;49.068;8.658;2023-12-20T03:23:45;99977.84;;;15.56;42.37
8637;BME280;4356;49.068;8.658;2023-12-20T03:26:10;99979.69;;;15.55;42.15
8637;BME280;4356;49.068;8.658;2023-12-20T03:28:36;99980.34;;;15.57;41.98
8637;BME280;4356;49.068;8.658;2023-12-20T03:31:01;99962.59;;;15.55;42.23
8637;BME280;4356;49.068;8.658;2023-12-20T03:33:27;99970.56;;;15.56;42.40
8637;BME280;4356;49.068;8.658;2023-12-20T03:35:53;99975.13;;;15.56;42.28
8637;BME280;4356;49.068;8.658;2023-12-20T03:38:18;99962.16;;;15.51;42.33
8637;BME280;4356;49.068;8.658;2023-12-20T03:40:44;99965.72;;;15.52;42.22
8637;BME280;4356;49.068;8.658;2023-12-20T03:43:09;99974.91;;;15.51;41.88
8637;BME280;4356;49.068;8.658;2023-12-20T03:45:35;99983.47;;;15.54;42.02
8637;BME280;4356;49.068;8.658;2023-12-20T03:48:00;99966.16;;;15.55;42.15
8637;BME280;4356;49.068;8.658;2023-12-20T03:50:26;99953.03;;;15.52;42.12
8637;BME280;4356;49.068;8.658;2023-12-20T03:52:52;99940.28;;;15.46;42.13
8637;BME280;4356;49.068;8.658;2023-12-20T03:55:18;99916.06;;;15.38;42.15
8637;BME280;4356;49.068;8.658;2023-12-20T03:57:43;99934.44;;;15.42;41.91
8637;BME280;4356;49.068;8.658;2023-12-20T04:00:09;99955.09;;;15.50;42.15
8637;BME280;4356;49.068;8.658;2023-12-20T04:02:39;99968.19;;;15.47;42.58
8637;BME280;4356;49.068;8.658;2023-12-20T04:05:05;99958.22;;;15.47;42.48
8637;BME280;4356;49.068;8.658;2023-12-20T04:07:31;99966.13;;;15.49;42.12
8637;BME280;4356;49.068;8.658;2023-12-20T04:09:56;99968.00;;;15.48;42.57
8637;BME280;4356;49.068;8.658;2023-12-20T04:12:22;99970.72;;;15.48;42.38
8637;BME280;4356;49.068;8.658;2023-12-20T04:14:47;99979.44;;;15.43;42.49
8637;BME280;4356;49.068;8.658;2023-12-20T04:17:13;99977.75;;;15.42;42.19
8637;BME280;4356;49.068;8.658;2023-12-20T04:19:38;99977.56;;;15.44;42.34
8637;BME280;4356;49.068;8.658;2023-12-20T04:22:03;99978.41;;;15.44;42.68
8637;BME280;4356;49.068;8.658;2023-12-20T04:24:29;99975.03;;;15.42;42.43
8637;BME280;4356;49.068;8.658;2023-12-20T04:26:54;99975.25;;;15.41;42.34
8637;BME280;4356;49.068;8.658;2023-12-20T04:29:19;99977.97;;;15.41;42.52
8637;BME280;4356;49.068;8.658;2023-12-20T04:31:45;99985.03;;;15.42;42.32
8637;BME280;4356;49.068;8.658;2023-12-20T04:34:10;99979.63;;;15.42;42.35
8637;BME280;4356;49.068;8.658;2023-12-20T04:36:35;99975.91;;;15.43;42.48
8637;BME280;4356;49.068;8.658;2023-12-20T04:39:01;99984.38;;;15.40;42.06
8637;BME280;4356;49.068;8.658;2023-12-20T04:41:26;99988.78;;;15.41;42.42
8637;BME280;4356;49.068;8.658;2023-12-20T04:43:52;99991.88;;;15.38;42.29
8637;BME280;4356;49.068;8.658;2023-12-20T04:46:18;100003.72;;;15.37;42.54
8637;BME280;4356;49.068;8.658;2023-12-20T04:48:43;100005.22;;;15.39;42.57
8637;BME280;4356;49.068;8.658;2023-12-20T04:51:08;99997.03;;;15.33;42.56
8637;BME280;4356;49.068;8.658;2023-12-20T04:53:34;100014.16;;;15.40;42.63
8637;BME280;4356;49.068;8.658;2023-12-20T04:55:59;100004.78;;;15.36;42.44
8637;BME280;4356;49.068;8.658;2023-12-20T04:58:24;100010.84;;;15.38;42.64
8637;BME280;4356;49.068;8.658;2023-12-20T05:00:50;100022.69;;;15.37;42.37
8637;BME280;4356;49.068;8.658;2023-12-20T05:03:16;100018.97;;;15.38;42.44
8637;BME280;4356;49.068;8.658;2023-12-20T05:05:41;100015.97;;;15.33;42.88
8637;BME280;4356;49.068;8.658;2023-12-20T05:08:06;100030.59;;;15.38;42.38
8637;BME280;4356;49.068;8.658;2023-12-20T05:10:32;100023.72;;;15.36;42.59
8637;BME280;4356;49.068;8.658;2023-12-20T05:12:57;100017.88;;;15.32;42.77
8637;BME280;4356;49.068;8.658;2023-12-20T05:15:22;100028.94;;;15.37;42.72
8637;BME280;4356;49.068;8.658;2023-12-20T05:17:48;100031.22;;;15.34;42.56
8637;BME280;4356;49.068;8.658;2023-12-20T05:20:13;100022.66;;;15.30;42.63
8637;BME280;4356;49.068;8.658;2023-12-20T05:22:41;100033.72;;;15.35;42.32
8637;BME280;4356;49.068;8.658;2023-12-20T05:25:06;100044.34;;;15.37;42.37
8637;BME280;4356;49.068;8.658;2023-12-20T05:27:32;100046.41;;;15.35;42.67
8637;BME280;4356;49.068;8.658;2023-12-20T05:29:57;100052.66;;;15.35;42.79
8637;BME280;4356;49.068;8.658;2023-12-20T05:32:23;100066.84;;;15.37;42.82
8637;BME280;4356;49.068;8.658;2023-12-20T05:34:48;100062.84;;;15.33;42.94
8637;BME280;4356;49.068;8.658;2023-12-20T05:37:14;100055.59;;;15.34;42.83
8637;BME280;4356;49.068;8.658;2023-12-20T05:39:39;100067.69;;;15.38;42.67
8637;BME280;4356;49.068;8.658;2023-12-20T05:42:05;100077.47;;;15.39;42.75
8637;BME280;4356;49.068;8.658;2023-12-20T05:44:30;100079.34;;;15.38;42.52
8637;BME280;4356;49.068;8.658;2023-12-20T05:46:55;100083.09;;;15.37;42.80
8637;BME280;4356;49.068;8.658;2023-12-20T05:49:21;100088.53;;;15.37;42.56
8637;BME280;4356;49.068;8.658;2023-12-20T05:51:47;100098.97;;;15.40;42.83
8637;BME280;4356;49.068;8.658;2023-12-20T05:54:12;100093.72;;;15.39;42.78
8637;BME280;4356;49.068;8.658;2023-12-20T05:56:38;100081.63;;;15.35;42.70
8637;BME280;4356;49.068;8.658;2023-12-20T05:59:03;100081.63;;;15.35;42.65
8637;BME280;4356;49.068;8.658;2023-12-20T06:01:29;100092.53;;;15.41;42.40
8637;BME280;4356;49.068;8.658;2023-12-20T06:03:54;100087.13;;;15.41;42.63
8637;BME280;4356;49.068;8.658;2023-12-20T06:06:19;100080.03;;;15.40;42.78
8637;BME280;4356;49.068;8.658;2023-12-20T06:08:45;100094.19;;;15.42;42.85
8637;BME280;4356;49.068;8.658;2023-12-20T06:11:10;100095.25;;;15.41;42.43
8637;BME280;4356;49.068;8.658;2023-12-20T06:13:36;100118.19;;;15.45;42.55
8637;BME280;4356;49.068;8.658;2023-12-20T06:16:01;100106.22;;;15.40;42.71
8637;BME280;4356;49.068;8.658;2023-12-20T06:18:26;100109.59;;;15.42;42.68
8637;BME280;4356;49.068;8.658;2023-12-20T06:20:52;100119.66;;;15.48;42.48
8637;BME280;4356;49.068;8.658;2023-12-20T06:23:17;100129.06;;;15.52;42.58
8637;BME280;4356;49.068;8.658;2023-12-20T06:25:43;100121.16;;;15.51;42.57
8637;BME280;4356;49.068;8.658;2023-12-20T06:28:09;100120.50;;;15.49;42.70
8637;BME280;4356;49.068;8.658;2023-12-20T06:30:35;100132.03;;;15.57;42.55
8637;BME280;4356;49.068;8.658;2023-12-20T06:33:01;100127.81;;;15.55;42.64
8637;BME280;4356;49.068;8.658;2023-12-20T06:35:26;100128.25;;;15.58;42.40
8637;BME280;4356;49.068;8.658;2023-12-20T06:37:52;100133.31;;;15.61;42.54
8637;BME280;4356;49.068;8.658;2023-12-20T06:40:17;100123.31;;;15.62;42.32
8637;BME280;4356;49.068;8.658;2023-12-20T06:42:44;100127.50;;;15.64;42.26
8637;BME280;4356;49.068;8.658;2023-12-20T06:45:09;100126.63;;;15.64;42.14
8637;BME280;4356;49.068;8.658;2023-12-20T06:47:35;100128.53;;;15.63;42.13
8637;BME280;4356;49.068;8.658;2023-12-20T06:50:00;100132.50;;;15.67;42.30
8637;BME280;4356;49.068;8.658;2023-12-20T06:52:26;100141.28;;;15.69;42.39
8637;BME280;4356;49.068;8.658;2023-12-20T06:54:52;100151.94;;;15.71;41.96
8637;BME280;4356;49.068;8.658;2023-12-20T06:57:17;100152.53;;;15.73;42.30
8637;BME280;4356;49.068;8.658;2023-12-20T06:59:44;100163.81;;;15.76;42.06
8637;BME280;4356;49.068;8.658;2023-12-20T07:02:10;100164.03;;;15.75;41.80
8637;BME280;4356;49.068;8.658;2023-12-20T07:04:39;100169.25;;;15.76;42.00
8637;BME280;4356;49.068;8.658;2023-12-20T07:07:05;100157.19;;;15.79;42.04
8637;BME280;4356;49.068;8.658;2023-12-20T07:09:30;100161.13;;;15.76;42.15
8637;BME280;4356;49.068;8.658;2023-12-20T07:11:56;100173.88;;;15.82;42.28
8637;BME280;4356;49.068;8.658;2023-12-20T07:14:21;100187.03;;;15.85;41.99
8637;BME280;4356;49.068;8.658;2023-12-20T07:16:47;100183.50;;;15.85;42.17
8637;BME280;4356;49.068;8.658;2023-12-20T07:19:12;100188.91;;;15.85;41.79
8637;BME280;4356;49.068;8.658;2023-12-20T07:21:38;100197.69;;;15.87;42.04
8637;BME280;4356;49.068;8.658;2023-12-20T07:24:03;100195.00;;;15.87;41.88
8637;BME280;4356;49.068;8.658;2023-12-20T07:26:29;100198.72;;;15.86;41.93
8637;BME280;4356;49.068;8.658;2023-12-20T07:28:54;100196.00;;;15.86;41.92
8637;BME280;4356;49.068;8.658;2023-12-20T07:31:19;100192.91;;;15.89;42.10
8637;BME280;4356;49.068;8.658;2023-12-20T07:33:45;100206.28;;;15.90;41.85
8637;BME280;4356;49.068;8.658;2023-12-20T07:36:11;100214.41;;;15.90;41.66
8637;BME280;4356;49.068;8.658;2023-12-20T07:38:37;100211.91;;;15.89;41.75
8637;BME280;4356;49.068;8.658;2023-12-20T07:41:02;100214.00;;;15.93;41.89
8637;BME280;4356;49.068;8.658;2023-12-20T07:43:28;100207.09;;;15.91;41.89
8637;BME280;4356;49.068;8.658;2023-12-20T07:45:53;100209.41;;;15.94;41.84
8637;BME280;4356;49.068;8.658;2023-12-20T07:48:19;100214.44;;;15.97;41.76
8637;BME280;4356;49.068;8.658;2023-12-20T07:50:44;100209.84;;;15.97;41.64
8637;BME280;4356;49.068;8.658;2023-12-20T07:53:09;100212.38;;;15.99;41.84
8637;BME280;4356;49.068;8.658;2023-12-20T07:55:35;100213.66;;;16.03;41.88
8637;BME280;4356;49.068;8.658;2023-12-20T07:58:00;100208.88;;;16.05;41.92
8637;BME280;4356;49.068;8.658;2023-12-20T08:00:26;100210.34;;;16.07;41.73
8637;BME280;4356;49.068;8.658;2023-12-20T08:02:52;100212.03;;;16.08;41.81
8637;BME280;4356;49.068;8.658;2023-12-20T08:05:18;100220.81;;;16.10;41.68
8637;BME280;4356;49.068;8.658;2023-12-20T08:07:43;100225.81;;;16.13;41.52
8637;BME280;4356;49.068;8.658;2023-12-20T08:10:09;100227.31;;;16.16;41.60
8637;BME280;4356;49.068;8.658;2023-12-20T08:12:34;100224.59;;;16.16;41.68
8637;BME280;4356;49.068;8.658;2023-12-20T08:15:00;100220.41;;;16.20;41.39
8637;BME280;4356;49.068;8.658;2023-12-20T08:17:25;100213.34;;;16.19;41.41
8637;BME280;4356;49.068;8.658;2023-12-20T08:19:51;100221.50;;;16.25;41.79
8637;BME280;4356;49.068;8.658;2023-12-20T08:22:16;100226.72;;;16.27;41.77
8637;BME280;4356;49.068;8.658;2023-12-20T08:24:41;100230.72;;;16.31;41.54
8637;BME280;4356;49.068;8.658;2023-12-20T08:27:07;100230.50;;;16.32;41.66
8637;BME280;4356;49.068;8.658;2023-12-20T08:29:32;100231.78;;;16.36;41.61
8637;BME280;4356;49.068;8.658;2023-12-20T08:31:58;100233.47;;;16.37;41.65
8637;BME280;4356;49.068;8.658;2023-12-20T08:34:24;100231.22;;;16.41;41.56
8637;BME280;4356;49.068;8.658;2023-12-20T08:36:50;100237.69;;;16.46;41.55
8637;BME280;4356;49.068;8.658;2023-12-20T08:39:16;100252.13;;;16.47;41.48
8637;BME280;4356;49.068;8.658;2023-12-20T08:41:42;100256.31;;;16.50;41.45
8637;BME280;4356;49.068;8.658;2023-12-20T08:44:07;100252.16;;;16.54;41.42
8637;BME280;4356;49.068;8.658;2023-12-20T08:46:32;100242.59;;;16.58;41.48
8637;BME280;4356;49.068;8.658;2023-12-20T08:48:58;100235.06;;;16.60;41.32
8637;BME280;4356;49.068;8.658;2023-12-20T08:51:23;100236.97;;;16.59;41.67
8637;BME280;4356;49.068;8.658;2023-12-20T08:53:51;100238.69;;;16.67;41.39
8637;BME280;4356;49.068;8.658;2023-12-20T08:56:16;100238.03;;;16.65;41.37
8637;BME280;4356;49.068;8.658;2023-12-20T08:58:43;100241.81;;;16.70;41.50
8637;BME280;4356;49.068;8.658;2023-12-20T09:01:08;100249.34;;;16.75;40.98
8637;BME280;4356;49.068;8.658;2023-12-20T09:03:34;100245.41;;;16.77;41.31
8637;BME280;4356;49.068;8.658;2023-12-20T09:05:59;100239.97;;;16.77;41.21
8637;BME280;4356;49.068;8.658;2023-12-20T09:08:28;100245.22;;;16.85;41.14
8637;BME280;4356;49.068;8.658;2023-12-20T09:10:53;100243.97;;;16.88;41.08
8637;BME280;4356;49.068;8.658;2023-12-20T09:13:19;100239.19;;;16.90;40.70
8637;BME280;4356;49.068;8.658;2023-12-20T09:15:44;100243.16;;;16.94;40.73
8637;BME280;4356;49.068;8.658;2023-12-20T09:18:09;100236.28;;;16.98;40.92
8637;BME280;4356;49.068;8.658;2023-12-20T09:20:35;100247.56;;;17.01;40.93
8637;BME280;4356;49.068;8.658;2023-12-20T09:23:00;100247.81;;;17.06;40.78
8637;BME280;4356;49.068;8.658;2023-12-20T09:25:26;100244.47;;;17.11;40.90
8637;BME280;4356;49.068;8.658;2023-12-20T09:27:52;100245.09;;;17.13;40.74
8637;BME280;4356;49.068;8.658;2023-12-20T09:30:18;100242.81;;;17.16;40.44
8637;BME280;4356;49.068;8.658;2023-12-20T09:32:45;100239.66;;;17.19;40.13
8637;BME280;4356;49.068;8.658;2023-12-20T09:35:10;100223.81;;;17.23;39.65
8637;BME280;4356;49.068;8.658;2023-12-20T09:37:36;100235.53;;;17.30;39.90
8637;BME280;4356;49.068;8.658;2023-12-20T09:40:02;100227.81;;;17.33;39.73
8637;BME280;4356;49.068;8.658;2023-12-20T09:42:39;100235.97;;;17.33;39.96
8637;BME280;4356;49.068;8.658;2023-12-20T09:45:09;100244.13;;;17.40;39.96
8637;BME280;4356;49.068;8.658;2023-12-20T09:47:35;100242.03;;;17.42;39.36
8637;BME280;4356;49.068;8.658;2023-12-20T09:50:02;100247.03;;;17.45;38.94
8637;BME280;4356;49.068;8.658;2023-12-20T09:52:28;100251.47;;;17.53;39.03
8637;BME280;4356;49.068;8.658;2023-12-20T09:54:55;100241.47;;;17.53;39.13
8637;BME280;4356;49.068;8.658;2023-12-20T09:57:21;100240.81;;;17.58;38.87
8637;BME280;4356;49.068;8.658;2023-12-20T09:59:47;100247.72;;;17.60;38.44
8637;BME280;4356;49.068;8.658;2023-12-20T10:02:13;100245.66;;;17.62;38.71
8637;BME280;4356;49.068;8.658;2023-12-20T10:04:46;100242.28;;;17.67;38.29
8637;BME280;4356;49.068;8.658;2023-12-20T10:07:11;100248.38;;;17.75;38.31
8637;BME280;4356;49.068;8.658;2023-12-20T10:09:37;100238.97;;;17.71;38.19
8637;BME280;4356;49.068;8.658;2023-12-20T10:12:04;100248.59;;;17.80;37.78
8637;BME280;4356;49.068;8.658;2023-12-20T10:14:30;100227.25;;;17.77;37.52
8637;BME280;4356;49.068;8.658;2023-12-20T10:17:03;100224.31;;;17.85;37.82
8637;BME280;4356;49.068;8.658;2023-12-20T10:19:29;100232.47;;;17.85;37.79
8637;BME280;4356;49.068;8.658;2023-12-20T10:21:54;100238.09;;;17.90;37.96
8637;BME280;4356;49.068;8.658;2023-12-20T10:24:20;100227.84;;;17.92;38.07
8637;BME280;4356;49.068;8.658;2023-12-20T10:26:46;100230.78;;;17.97;37.81
8637;BME280;4356;49.068;8.658;2023-12-20T10:29:11;100231.41;;;17.99;37.76
8637;BME280;4356;49.068;8.658;2023-12-20T10:31:36;100234.75;;;18.01;38.03
8637;BME280;4356;49.068;8.658;2023-12-20T10:34:04;100247.75;;;18.06;38.16
8637;BME280;4356;49.068;8.658;2023-12-20T10:36:31;100239.78;;;18.04;38.54
8637;BME280;4356;49.068;8.658;2023-12-20T10:38:58;100233.94;;;18.01;38.40
8637;BME280;4356;49.068;8.658;2023-12-20T10:41:31;100233.31;;;17.99;38.37
8637;BME280;4356;49.068;8.658;2023-12-20T10:43:59;100235.41;;;17.97;38.48
8637;BME280;4356;49.068;8.658;2023-12-20T10:46:29;100235.63;;;17.95;38.65
8637;BME280;4356;49.068;8.658;2023-12-20T10:48:55;100231.22;;;17.88;38.52
8637;BME280;4356;49.068;8.658;2023-12-20T10:51:22;100241.47;;;17.92;38.30
8637;BME280;4356;49.068;8.658;2023-12-20T10:53:48;100235.81;;;17.87;38.63
8637;BME280;4356;49.068;8.658;2023-12-20T10:56:18;100236.66;;;17.88;38.67
8637;BME280;4356;49.068;8.658;2023-12-20T10:58:48;100218.47;;;17.82;38.97
8637;BME280;4356;49.068;8.658;2023-12-20T11:01:15;100231.44;;;17.86;38.85
8637;BME280;4356;49.068;8.658;2023-12-20T11:03:51;100226.41;;;17.83;38.97
8637;BME280;4356;49.068;8.658;2023-12-20T11:06:28;100218.25;;;17.83;38.98
8637;BME280;4356;49.068;8.658;2023-12-20T11:09:03;100214.91;;;17.81;39.04
8637;BME280;4356;49.068;8.658;2023-12-20T11:14:17;100193.38;;;17.73;38.76
8637;BME280;4356;49.068;8.658;2023-12-20T11:16:44;100194.00;;;17.75;39.17
8637;BME280;4356;49.068;8.658;2023-12-20T11:19:11;100201.31;;;17.75;39.18
8637;BME280;4356;49.068;8.658;2023-12-20T11:21:39;100200.91;;;17.71;39.10
8637;BME280;4356;49.068;8.658;2023-12-20T11:24:05;100204.47;;;17.72;39.18
8637;BME280;4356;49.068;8.658;2023-12-20T11:26:30;100198.81;;;17.73;39.11
8637;BME280;4356;49.068;8.658;2023-12-20T11:29:31;100203.81;;;17.76;38.86
8637;BME280;4356;49.068;8.658;2023-12-20T11:31:57;100192.97;;;17.70;38.92
8637;BME280;4356;49.068;8.658;2023-12-20T11:34:27;100193.59;;;17.72;39.44
8637;BME280;4356;49.068;8.658;2023-12-20T11:37:00;100203.84;;;17.70;39.37
8637;BME280;4356;49.068;8.658;2023-12-20T11:39:26;100196.72;;;17.69;39.31
8637;BME280;4356;49.068;8.658;2023-12-20T11:41:54;100200.91;;;17.71;39.41
8637;BME280;4356;49.068;8.658;2023-12-20T11:44:20;100188.78;;;17.67;39.18
8637;BME280;4356;49.068;8.658;2023-12-20T11:46:46;100187.13;;;17.66;39.22
8637;BME280;4356;49.068;8.658;2023-12-20T11:49:11;100186.28;;;17.66;39.45
8637;BME280;4356;49.068;8.658;2023-12-20T11:51:43;100194.22;;;17.67;39.16
8637;BME280;4356;49.068;8.658;2023-12-20T11:54:09;100197.13;;;17.66;39.43
8637;BME280;4356;49.068;8.658;2023-12-20T11:56:36;100192.56;;;17.66;39.39
8637;BME280;4356;49.068;8.658;2023-12-20T11:59:01;100197.13;;;17.66;39.36
8637;BME280;4356;49.068;8.658;2023-12-20T12:01:27;100186.06;;;17.61;39.33
8637;BME280;4356;49.068;8.658;2023-12-20T12:04:05;100196.28;;;17.65;39.42
8637;BME280;4356;49.068;8.658;2023-12-20T12:06:31;100184.16;;;17.61;39.27
8637;BME280;4356;49.068;8.658;2023-12-20T12:08:56;100191.72;;;17.66;39.72
8637;BME280;4356;49.068;8.658;2023-12-20T12:11:22;100187.13;;;17.66;39.64
8637;BME280;4356;49.068;8.658;2023-12-20T12:13:48;100172.25;;;17.56;39.46
8637;BME280;4356;49.068;8.658;2023-12-20T12:16:18;100163.50;;;17.54;39.66
8637;BME280;4356;49.068;8.658;2023-12-20T12:18:54;100165.78;;;17.57;39.56
8637;BME280;4356;49.068;8.658;2023-12-20T12:21:23;100164.72;;;17.58;39.86
8637;BME280;4356;49.068;8.658;2023-12-20T12:23:48;100176.00;;;17.61;39.47
8637;BME280;4356;49.068;8.658;2023-12-20T12:26:14;100177.06;;;17.67;39.64
8637;BME280;4356;49.068;8.658;2023-12-20T12:28:40;100172.69;;;17.66;39.69
8637;BME280;4356;49.068;8.658;2023-12-20T12:31:07;100169.97;;;17.66;39.74
8637;BME280;4356;49.068;8.658;2023-12-20T12:33:32;100173.53;;;17.66;39.45
8637;BME280;4356;49.068;8.658;2023-12-20T12:35:58;100171.22;;;17.63;39.62
8637;BME280;4356;49.068;8.658;2023-12-20T12:38:24;100172.06;;;17.64;39.29
8637;BME280;4356;49.068;8.658;2023-12-20T12:40:50;100189.63;;;17.68;39.44
8637;BME280;4356;49.068;8.658;2023-12-20T12:43:18;100175.63;;;17.64;39.69
8637;BME280;4356;49.068;8.658;2023-12-20T12:45:44;100178.13;;;17.66;39.74
8637;BME280;4356;49.068;8.658;2023-12-20T12:48:09;100168.72;;;17.68;39.55
8637;BME280;4356;49.068;8.658;2023-12-20T12:50:35;100158.91;;;17.61;39.94
8637;BME280;4356;49.068;8.658;2023-12-20T12:53:01;100177.91;;;17.67;39.51
8637;BME280;4356;49.068;8.658;2023-12-20T12:55:28;100173.09;;;17.69;39.77
8637;BME280;4356;49.068;8.658;2023-12-20T12:57:53;100175.19;;;17.67;39.73
8637;BME280;4356;49.068;8.658;2023-12-20T13:00:19;100177.06;;;17.67;39.60
8637;BME280;4356;49.068;8.658;2023-12-20T13:02:44;100179.59;;;17.68;39.59
8637;BME280;4356;49.068;8.658;2023-12-20T13:05:10;100183.13;;;17.69;39.88
8637;BME280;4356;49.068;8.658;2023-12-20T13:07:35;100183.97;;;17.69;39.95
8637;BME280;4356;49.068;8.658;2023-12-20T13:10:02;100173.72;;;17.71;39.71
8637;BME280;4356;49.068;8.658;2023-12-20T13:12:28;100177.47;;;17.70;40.00